createdAt,value
2017-10-30T00:00:02.468Z,7.7
2017-10-30T00:01:04.529Z,7.6
2017-10-30T00:02:06.621Z,7.7
2017-10-30T00:03:08.903Z,7.6
2017-10-30T00:04:11.029Z,7.5
2017-10-30T00:05:13.115Z,7.7
2017-10-30T00:06:15.198Z,7.7
2017-10-30T00:07:17.311Z,7.6
2017-10-30T00:08:19.271Z,7.5
2017-10-30T00:09:21.273Z,7.5
2017-10-30T00:10:23.321Z,7.5
2017-10-30T00:11:25.332Z,7.5
2017-10-30T00:12:27.851Z,7.4
2017-10-30T00:13:29.854Z,7.5
2017-10-30T00:14:31.816Z,7.5
2017-10-30T00:15:35.204Z,7.5
2017-10-30T00:16:37.968Z,7.7
2017-10-30T00:17:39.939Z,7.6
2017-10-30T00:18:42.073Z,7.6
2017-10-30T00:19:44.126Z,7.6
2017-10-30T00:20:46.078Z,7.6
2017-10-30T00:21:47.996Z,7.7
2017-10-30T00:22:50.044Z,7.6
2017-10-30T00:23:52.047Z,7.6
2017-10-30T00:24:54.125Z,7.4
2017-10-30T00:25:56.123Z,7.5
2017-10-30T00:26:58.007Z,7.5
2017-10-30T00:28:00.108Z,7.6
2017-10-30T00:29:02.217Z,7.4
2017-10-30T00:30:04.224Z,7.4
2017-10-30T00:31:06.286Z,7.5
2017-10-30T00:32:08.447Z,7.4
2017-10-30T00:33:10.445Z,7.5
2017-10-30T00:34:12.402Z,7.3
2017-10-30T00:35:14.388Z,7.4
2017-10-30T00:36:16.444Z,7.3
2017-10-30T00:37:18.346Z,7.5
2017-10-30T00:38:20.236Z,7.3
2017-10-30T00:39:22.253Z,7.5
2017-10-30T00:40:24.184Z,7.4
2017-10-30T00:41:26.396Z,7.4
2017-10-30T00:42:28.373Z,7.3
2017-10-30T00:43:30.747Z,7.3
2017-10-30T00:44:34.028Z,7.5
2017-10-30T00:45:36.107Z,7.4
2017-10-30T00:46:38.076Z,7.5
2017-10-30T00:47:40.076Z,7.6
2017-10-30T00:48:42.076Z,7.3
2017-10-30T00:49:44.477Z,7.3
2017-10-30T00:50:46.413Z,7.3
2017-10-30T00:51:48.403Z,7.4
2017-10-30T00:52:50.319Z,7.4
2017-10-30T00:53:52.283Z,7.5
2017-10-30T00:54:54.196Z,7.2
2017-10-30T00:55:56.197Z,7.3
2017-10-30T00:56:58.196Z,7.4
2017-10-30T00:58:00.140Z,7.4
2017-10-30T00:59:02.130Z,7.3
2017-10-30T01:00:04.253Z,7.3
2017-10-30T01:01:06.173Z,7.4
2017-10-30T01:02:08.111Z,7.2
2017-10-30T01:03:10.139Z,7.4
2017-10-30T01:04:12.246Z,7.6
2017-10-30T01:05:14.288Z,7.6
2017-10-30T01:06:16.350Z,7.5
2017-10-30T01:07:18.433Z,7.6
2017-10-30T01:08:20.544Z,7.6
2017-10-30T01:09:22.926Z,7.5
2017-10-30T01:10:24.960Z,7.5
2017-10-30T01:11:26.878Z,7.4
2017-10-30T01:12:28.912Z,7.6
2017-10-30T01:13:31.024Z,7.4
2017-10-30T01:14:34.595Z,7.4
2017-10-30T01:15:36.653Z,7.6
2017-10-30T01:16:38.809Z,7.6
2017-10-30T01:17:40.925Z,7.7
2017-10-30T01:18:43.020Z,7.7
2017-10-30T01:19:45.399Z,7.7
2017-10-30T01:20:47.346Z,7.7
2017-10-30T01:21:49.416Z,7.5
2017-10-30T01:22:51.423Z,7.5
2017-10-30T01:23:55.976Z,7.5
2017-10-30T01:25:01.906Z,7.7
2017-10-30T01:26:06.972Z,7.7
2017-10-30T01:27:09.096Z,7.6
2017-10-30T01:28:11.119Z,7.4
2017-10-30T01:29:13.136Z,7.4
2017-10-30T01:30:15.163Z,7.5
2017-10-30T01:31:17.166Z,7.6
2017-10-30T01:32:19.129Z,7.6
2017-10-30T01:33:21.121Z,7.6
2017-10-30T01:34:23.173Z,7.5
2017-10-30T01:35:25.380Z,7.3
2017-10-30T01:36:27.391Z,7.3
2017-10-30T01:37:30.077Z,7.4
2017-10-30T01:38:34.781Z,7.3
2017-10-30T01:39:36.801Z,7.2
2017-10-30T01:40:38.997Z,7.3
2017-10-30T01:41:41.084Z,7.5
2017-10-30T01:42:43.177Z,7.5
2017-10-30T01:43:45.249Z,7.4
2017-10-30T01:44:47.328Z,7.4
2017-10-30T01:45:49.370Z,7.3
2017-10-30T01:46:51.359Z,7.5
2017-10-30T01:47:53.335Z,7.5
2017-10-30T01:48:55.294Z,7.6
2017-10-30T01:49:57.346Z,7.5
2017-10-30T01:50:59.342Z,7.6
2017-10-30T01:52:01.291Z,7.6
2017-10-30T01:53:03.170Z,7.4
2017-10-30T01:54:05.105Z,7.5
2017-10-30T01:55:07.229Z,7.4
2017-10-30T01:56:09.117Z,7.3
2017-10-30T01:57:11.001Z,7.5
2017-10-30T01:58:12.942Z,7.5
2017-10-30T01:59:14.905Z,7.4
2017-10-30T02:00:16.845Z,7.3
2017-10-30T02:01:18.844Z,7.4
2017-10-30T02:02:20.850Z,7.4
2017-10-30T02:03:25.580Z,7.5
2017-10-30T02:04:27.577Z,7.5
2017-10-30T02:05:29.635Z,7.6
2017-10-30T02:06:31.639Z,7.5
2017-10-30T02:07:35.608Z,7.5
2017-10-30T02:08:37.789Z,7.4
2017-10-30T02:09:40.485Z,7.4
2017-10-30T02:10:42.509Z,7.3
2017-10-30T02:11:45.255Z,7.2
2017-10-30T02:12:47.417Z,7.3
2017-10-30T02:13:49.401Z,7.3
2017-10-30T02:14:51.350Z,7.2
2017-10-30T02:15:53.603Z,7.3
2017-10-30T02:16:55.682Z,7.3
2017-10-30T02:17:57.685Z,7.4
2017-10-30T02:18:59.802Z,7.4
2017-10-30T02:20:01.870Z,7.4
2017-10-30T02:21:03.870Z,7.4
2017-10-30T02:22:06.217Z,7.2
2017-10-30T02:23:08.185Z,7.4
2017-10-30T02:24:10.350Z,7.4
2017-10-30T02:25:12.319Z,7.4
2017-10-30T02:26:14.312Z,7.3
2017-10-30T02:27:16.394Z,7.3
2017-10-30T02:28:18.425Z,7.2
2017-10-30T02:29:20.434Z,7.1
2017-10-30T02:30:22.320Z,7.3
2017-10-30T02:31:24.357Z,7.4
2017-10-30T02:32:26.335Z,7.4
2017-10-30T02:33:28.279Z,7.2
2017-10-30T02:34:30.851Z,7.3
2017-10-30T02:35:34.558Z,7.4
2017-10-30T02:36:37.461Z,7.3
2017-10-30T02:37:39.515Z,7.5
2017-10-30T02:38:41.525Z,7.5
2017-10-30T02:39:43.450Z,7.4
2017-10-30T02:40:45.471Z,7.3
2017-10-30T02:41:47.414Z,7.2
2017-10-30T02:42:49.371Z,7.3
2017-10-30T02:43:51.333Z,7.4
2017-10-30T02:44:53.360Z,7.3
2017-10-30T02:45:55.365Z,7.3
2017-10-30T02:46:57.341Z,7.2
2017-10-30T02:47:59.344Z,7.1
2017-10-30T02:49:01.558Z,7.2
2017-10-30T02:50:03.527Z,7.2
2017-10-30T02:51:05.446Z,7.1
2017-10-30T02:52:07.456Z,7.1
2017-10-30T02:53:09.533Z,7.2
2017-10-30T02:54:12.032Z,7.1
2017-10-30T02:55:13.922Z,7.2
2017-10-30T02:56:15.850Z,7.3
2017-10-30T02:57:17.774Z,7.1
2017-10-30T02:58:19.734Z,7.1
2017-10-30T02:59:21.760Z,7.3
2017-10-30T03:00:23.668Z,7.2
2017-10-30T03:01:25.646Z,7.1
2017-10-30T03:02:27.625Z,7.2
2017-10-30T03:03:29.630Z,7.2
2017-10-30T03:04:31.620Z,7.2
2017-10-30T03:05:35.072Z,7.1
2017-10-30T03:06:37.003Z,7.1
2017-10-30T03:07:38.944Z,7.1
2017-10-30T03:08:41.065Z,7.1
2017-10-30T03:09:43.041Z,7.2
2017-10-30T03:10:45.039Z,7.2
2017-10-30T03:11:46.947Z,7.3
2017-10-30T03:12:48.878Z,7.1
2017-10-30T03:13:50.768Z,7.2
2017-10-30T03:14:52.745Z,7.2
2017-10-30T03:15:58.221Z,7.1
2017-10-30T03:17:00.167Z,7.2
2017-10-30T03:18:02.361Z,7.1
2017-10-30T03:19:04.297Z,7.1
2017-10-30T03:20:06.215Z,7.1
2017-10-30T03:21:08.246Z,7.2
2017-10-30T03:22:10.130Z,7.2
2017-10-30T03:23:12.152Z,7.2
2017-10-30T03:24:14.154Z,7.2
2017-10-30T03:25:16.166Z,7.2
2017-10-30T03:26:18.135Z,7.3
2017-10-30T03:27:20.074Z,7.2
2017-10-30T03:28:22.014Z,7.2
2017-10-30T03:29:24.027Z,7.1
2017-10-30T03:30:26.087Z,7.1
2017-10-30T03:31:28.065Z,6.9
2017-10-30T03:32:30.618Z,7.1
2017-10-30T03:33:35.547Z,7.1
2017-10-30T03:34:37.599Z,7
2017-10-30T03:35:39.585Z,7
2017-10-30T03:36:41.580Z,7.1
2017-10-30T03:37:43.699Z,7.1
2017-10-30T03:38:45.729Z,7
2017-10-30T03:39:47.790Z,7
2017-10-30T03:40:49.724Z,7.1
2017-10-30T03:41:51.680Z,6.9
2017-10-30T03:42:53.611Z,7
2017-10-30T03:43:55.573Z,7
2017-10-30T03:44:57.607Z,7.1
2017-10-30T03:45:59.546Z,7.1
2017-10-30T03:47:01.485Z,7.1
2017-10-30T03:48:03.478Z,7.2
2017-10-30T03:49:05.455Z,7.2
2017-10-30T03:50:07.486Z,7
2017-10-30T03:51:09.741Z,7
2017-10-30T03:52:11.659Z,7.1
2017-10-30T03:53:13.722Z,7.1
2017-10-30T03:54:15.757Z,7.1
2017-10-30T03:55:17.780Z,7
2017-10-30T03:56:19.831Z,7.1
2017-10-30T03:57:21.845Z,7.2
2017-10-30T03:58:23.849Z,7.2
2017-10-30T03:59:25.860Z,7.3
2017-10-30T04:00:27.913Z,7.2
2017-10-30T04:01:29.871Z,7.2
2017-10-30T04:02:31.800Z,7.2
2017-10-30T04:03:35.412Z,7.1
2017-10-30T04:04:37.295Z,7
2017-10-30T04:05:39.259Z,7.2
2017-10-30T04:06:41.180Z,7.3
2017-10-30T04:07:43.059Z,7.3
2017-10-30T04:08:45.097Z,7.2
2017-10-30T04:09:46.986Z,7.1
2017-10-30T04:10:48.859Z,7
2017-10-30T04:11:50.825Z,7
2017-10-30T04:12:52.842Z,6.9
2017-10-30T04:13:54.754Z,7.1
2017-10-30T04:14:56.701Z,7.1
2017-10-30T04:15:58.620Z,7.1
2017-10-30T04:17:00.605Z,7.1
2017-10-30T04:18:02.545Z,7.1
2017-10-30T04:19:04.507Z,7.1
2017-10-30T04:20:06.425Z,6.9
2017-10-30T04:21:08.421Z,7
2017-10-30T04:22:10.349Z,7
2017-10-30T04:23:12.225Z,7
2017-10-30T04:24:14.176Z,7.1
2017-10-30T04:25:16.069Z,7.2
2017-10-30T04:26:18.024Z,7.1
2017-10-30T04:27:19.955Z,6.9
2017-10-30T04:28:21.876Z,6.9
2017-10-30T04:29:23.810Z,7
2017-10-30T04:30:25.869Z,7.1
2017-10-30T04:31:27.819Z,6.9
2017-10-30T04:32:30.037Z,6.9
2017-10-30T04:33:31.955Z,7.1
2017-10-30T04:34:35.509Z,7.2
2017-10-30T04:35:37.446Z,7.1
2017-10-30T04:36:39.483Z,6.9
2017-10-30T04:37:41.495Z,6.8
2017-10-30T04:38:43.430Z,6.7
2017-10-30T04:39:45.695Z,6.9
2017-10-30T04:40:47.639Z,6.8
2017-10-30T04:41:49.829Z,6.9
2017-10-30T04:42:51.742Z,6.7
2017-10-30T04:43:53.614Z,6.7
2017-10-30T04:44:55.505Z,6.8
2017-10-30T04:45:57.418Z,6.8
2017-10-30T04:46:59.565Z,6.8
2017-10-30T04:48:01.498Z,6.8
2017-10-30T04:49:03.468Z,6.8
2017-10-30T04:50:05.356Z,6.8
2017-10-30T04:51:07.283Z,6.8
2017-10-30T04:52:09.237Z,6.7
2017-10-30T04:53:11.147Z,6.8
2017-10-30T04:54:13.123Z,6.9
2017-10-30T04:55:14.984Z,6.8
2017-10-30T04:56:16.970Z,7.1
2017-10-30T04:57:19.277Z,6.9
2017-10-30T04:58:21.251Z,6.8
2017-10-30T04:59:23.214Z,6.8
2017-10-30T05:00:25.353Z,6.9
2017-10-30T05:01:27.393Z,6.6
2017-10-30T05:02:30.283Z,6.7
2017-10-30T05:03:34.141Z,6.8
2017-10-30T05:04:36.103Z,6.7
2017-10-30T05:05:38.090Z,6.6
2017-10-30T05:06:40.046Z,6.6
2017-10-30T05:07:42.233Z,6.7
2017-10-30T05:08:44.823Z,6.6
2017-10-30T05:09:46.894Z,6.7
2017-10-30T05:10:48.850Z,6.6
2017-10-30T05:11:50.925Z,6.7
2017-10-30T05:12:52.975Z,6.6
2017-10-30T05:13:54.955Z,6.7
2017-10-30T05:14:56.919Z,6.7
2017-10-30T05:15:58.931Z,6.7
2017-10-30T05:17:01.134Z,6.7
2017-10-30T05:18:03.369Z,6.6
2017-10-30T05:19:05.390Z,6.8
2017-10-30T05:20:07.542Z,6.7
2017-10-30T05:21:09.473Z,6.8
2017-10-30T05:22:11.433Z,6.8
2017-10-30T05:23:13.515Z,6.8
2017-10-30T05:24:15.513Z,6.9
2017-10-30T05:25:17.574Z,6.8
2017-10-30T05:26:19.602Z,7
2017-10-30T05:27:21.694Z,7
2017-10-30T05:28:23.806Z,7.1
2017-10-30T05:29:25.798Z,7.1
2017-10-30T05:30:27.782Z,7.1
2017-10-30T05:31:30.146Z,6.8
2017-10-30T05:32:32.165Z,6.9
2017-10-30T05:33:34.593Z,7.1
2017-10-30T05:34:36.764Z,7.1
2017-10-30T05:35:38.970Z,7
2017-10-30T05:36:40.968Z,6.9
2017-10-30T05:37:42.996Z,7
2017-10-30T05:38:45.099Z,7.2
2017-10-30T05:39:47.065Z,7.2
2017-10-30T05:40:49.004Z,7.2
2017-10-30T05:41:50.980Z,7.2
2017-10-30T05:42:52.981Z,7.1
2017-10-30T05:43:55.027Z,7
2017-10-30T05:44:57.071Z,7.1
2017-10-30T05:45:59.063Z,7
2017-10-30T05:47:01.133Z,7
2017-10-30T05:48:03.129Z,7.2
2017-10-30T05:49:05.101Z,7.2
2017-10-30T05:50:07.168Z,7.1
2017-10-30T05:51:09.152Z,7.1
2017-10-30T05:52:11.158Z,7.1
2017-10-30T05:53:13.406Z,7
2017-10-30T05:54:15.527Z,7.1
2017-10-30T05:55:17.549Z,7.1
2017-10-30T05:56:19.673Z,7.1
2017-10-30T05:57:21.759Z,6.9
2017-10-30T05:58:23.797Z,6.9
2017-10-30T05:59:25.867Z,6.9
2017-10-30T06:00:27.900Z,6.9
2017-10-30T06:01:30.565Z,6.8
2017-10-30T06:02:32.596Z,6.9
2017-10-30T06:03:34.734Z,6.9
2017-10-30T06:04:36.731Z,6.9
2017-10-30T06:05:38.815Z,6.8
2017-10-30T06:06:40.856Z,6.8
2017-10-30T06:07:42.789Z,6.7
2017-10-30T06:08:44.767Z,6.9
2017-10-30T06:09:46.928Z,6.9
2017-10-30T06:10:48.848Z,7
2017-10-30T06:11:50.837Z,7
2017-10-30T06:12:53.357Z,7.1
2017-10-30T06:13:55.820Z,7.1
2017-10-30T06:14:57.890Z,7
2017-10-30T06:15:59.918Z,7
2017-10-30T06:17:02.148Z,7
2017-10-30T06:18:05.332Z,7
2017-10-30T06:19:07.248Z,7
2017-10-30T06:20:09.250Z,7.1
2017-10-30T06:21:11.333Z,7
2017-10-30T06:22:13.381Z,6.9
2017-10-30T06:23:15.468Z,6.9
2017-10-30T06:24:17.530Z,7
2017-10-30T06:25:19.657Z,7
2017-10-30T06:26:21.695Z,6.9
2017-10-30T06:27:23.678Z,7
2017-10-30T06:28:25.696Z,6.9
2017-10-30T06:29:27.717Z,7.1
2017-10-30T06:30:29.758Z,7
2017-10-30T06:31:31.794Z,6.9
2017-10-30T06:32:33.911Z,7
2017-10-30T06:33:35.963Z,6.9
2017-10-30T06:34:37.964Z,6.9
2017-10-30T06:35:40.003Z,6.9
2017-10-30T06:36:42.024Z,6.9
2017-10-30T06:37:44.038Z,7
2017-10-30T06:38:46.202Z,7
2017-10-30T06:39:48.564Z,6.6
2017-10-30T06:40:50.757Z,6.8
2017-10-30T06:41:52.817Z,6.7
2017-10-30T06:42:54.785Z,6.8
2017-10-30T06:43:56.772Z,6.8
2017-10-30T06:44:58.750Z,6.9
2017-10-30T06:46:00.924Z,6.9
2017-10-30T06:47:03.045Z,6.9
2017-10-30T06:48:05.074Z,7
2017-10-30T06:49:07.172Z,7
2017-10-30T06:50:09.308Z,6.9
2017-10-30T06:51:11.480Z,6.9
2017-10-30T06:52:13.470Z,6.9
2017-10-30T06:53:15.446Z,7
2017-10-30T06:54:17.511Z,7
2017-10-30T06:55:19.622Z,7
2017-10-30T06:56:21.847Z,7.1
2017-10-30T06:57:24.218Z,7.4
2017-10-30T06:58:26.180Z,7.5
2017-10-30T06:59:28.159Z,7.4
2017-10-30T07:00:30.547Z,7.5
2017-10-30T07:01:34.336Z,7.7
2017-10-30T07:02:38.538Z,7.7
2017-10-30T07:03:40.641Z,7.6
2017-10-30T07:04:42.728Z,7.6
2017-10-30T07:05:44.726Z,7.4
2017-10-30T07:06:46.797Z,7.3
2017-10-30T07:07:48.764Z,7.3
2017-10-30T07:08:50.820Z,7.4
2017-10-30T07:09:52.904Z,7.4
2017-10-30T07:10:54.967Z,7.4
2017-10-30T07:11:57.043Z,7.4
2017-10-30T07:12:59.283Z,7.5
2017-10-30T07:14:01.312Z,7.4
2017-10-30T07:15:03.353Z,7.3
2017-10-30T07:16:05.295Z,7.2
2017-10-30T07:17:07.322Z,7.1
2017-10-30T07:18:09.366Z,7
2017-10-30T07:19:11.328Z,7.1
2017-10-30T07:20:13.369Z,7.2
2017-10-30T07:21:15.375Z,7.1
2017-10-30T07:22:17.416Z,7.1
2017-10-30T07:23:19.526Z,7.1
2017-10-30T07:24:21.600Z,7.3
2017-10-30T07:25:23.747Z,7.1
2017-10-30T07:26:25.760Z,7.3
2017-10-30T07:27:27.813Z,7.4
2017-10-30T07:28:29.783Z,7.5
2017-10-30T07:29:31.836Z,7.3
2017-10-30T07:30:35.545Z,7.4
2017-10-30T07:31:37.644Z,7.5
2017-10-30T07:32:39.613Z,7.5
2017-10-30T07:33:42.028Z,7.5
2017-10-30T07:34:44.002Z,7.5
2017-10-30T07:35:46.013Z,7.5
2017-10-30T07:36:48.034Z,7.5
2017-10-30T07:37:50.106Z,7.5
2017-10-30T07:38:52.053Z,7.6
2017-10-30T07:39:54.070Z,7.8
2017-10-30T07:40:56.089Z,7.8
2017-10-30T07:41:58.059Z,7.6
2017-10-30T07:42:59.972Z,7.6
2017-10-30T07:44:02.016Z,7.4
2017-10-30T07:45:04.095Z,7.6
2017-10-30T07:46:06.068Z,7.6
2017-10-30T07:47:08.188Z,7.7
2017-10-30T07:48:10.223Z,7.5
2017-10-30T07:49:12.293Z,7.6
2017-10-30T07:50:14.275Z,7.7
2017-10-30T07:51:16.297Z,7.7
2017-10-30T07:52:18.369Z,7.7
2017-10-30T07:53:20.663Z,7.6
2017-10-30T07:54:22.716Z,7.6
2017-10-30T07:55:24.729Z,7.5
2017-10-30T07:56:26.734Z,7.7
2017-10-30T07:57:28.882Z,7.8
2017-10-30T07:58:30.975Z,7.7
2017-10-30T07:59:34.737Z,7.6
2017-10-30T08:00:36.690Z,7.7
2017-10-30T08:01:38.702Z,7.6
2017-10-30T08:02:42.562Z,7.7
2017-10-30T08:03:44.497Z,7.8
2017-10-30T08:04:46.914Z,7.8
2017-10-30T08:05:48.817Z,7.7
2017-10-30T08:06:50.926Z,7.7
2017-10-30T08:07:52.962Z,7.8
2017-10-30T08:08:55.072Z,7.7
2017-10-30T08:09:57.008Z,7.7
2017-10-30T08:10:58.969Z,7.8
2017-10-30T08:12:00.966Z,7.7
2017-10-30T08:13:02.973Z,7.4
2017-10-30T08:14:05.007Z,7.7
2017-10-30T08:15:07.078Z,7.8
2017-10-30T08:16:09.155Z,7.9
2017-10-30T08:17:11.154Z,7.9
2017-10-30T08:18:13.331Z,7.8
2017-10-30T08:19:15.355Z,7.7
2017-10-30T08:20:17.389Z,7.8
2017-10-30T08:21:19.341Z,8
2017-10-30T08:22:21.416Z,8
2017-10-30T08:23:23.498Z,7.9
2017-10-30T08:24:25.563Z,7.9
2017-10-30T08:25:27.647Z,8
2017-10-30T08:26:30.315Z,7.9
2017-10-30T08:27:32.281Z,8.1
2017-10-30T08:28:34.335Z,8.1
2017-10-30T08:29:36.442Z,8
2017-10-30T08:30:38.438Z,8.1
2017-10-30T08:31:40.416Z,8.3
2017-10-30T08:32:42.377Z,8
2017-10-30T08:33:44.383Z,7.9
2017-10-30T08:34:46.340Z,8
2017-10-30T08:35:48.434Z,8.1
2017-10-30T08:36:50.361Z,8.1
2017-10-30T08:37:52.397Z,8.1
2017-10-30T08:38:54.356Z,8.2
2017-10-30T08:39:56.414Z,8.2
2017-10-30T08:40:58.548Z,8.2
2017-10-30T08:42:00.477Z,8.2
2017-10-30T08:43:02.487Z,8.1
2017-10-30T08:44:04.470Z,8.3
2017-10-30T08:45:07.116Z,8.3
2017-10-30T08:46:09.154Z,8.2
2017-10-30T08:47:11.084Z,8.1
2017-10-30T08:48:13.055Z,7.8
2017-10-30T08:49:15.001Z,7.9
2017-10-30T08:50:17.114Z,8.2
2017-10-30T08:51:19.204Z,8.7
2017-10-30T08:52:21.219Z,9
2017-10-30T08:53:23.398Z,9
2017-10-30T08:54:25.404Z,9.2
2017-10-30T08:55:27.448Z,9.1
2017-10-30T08:56:29.741Z,9.1
2017-10-30T08:57:31.748Z,9.2
2017-10-30T08:58:37.073Z,9.4
2017-10-30T08:59:39.030Z,9.7
2017-10-30T09:00:41.213Z,10.3
2017-10-30T09:01:43.110Z,10.3
2017-10-30T09:02:45.084Z,10.3
2017-10-30T09:03:50.341Z,10.1
2017-10-30T09:04:52.363Z,9.9
2017-10-30T09:05:54.381Z,10.1
2017-10-30T09:06:56.332Z,10.1
2017-10-30T09:07:58.347Z,10.1
2017-10-30T09:09:00.362Z,9.6
2017-10-30T09:10:02.679Z,9.4
2017-10-30T09:11:04.957Z,9.3
2017-10-30T09:12:06.918Z,9.3
2017-10-30T09:13:08.912Z,9.1
2017-10-30T09:14:11.428Z,9.3
2017-10-30T09:15:13.483Z,9
2017-10-30T09:16:15.555Z,8.8
2017-10-30T09:17:17.512Z,8.6
2017-10-30T09:18:19.506Z,9
2017-10-30T09:19:21.471Z,8.9
2017-10-30T09:20:23.522Z,9
2017-10-30T09:21:25.541Z,8.9
2017-10-30T09:22:27.838Z,8.7
2017-10-30T09:23:29.834Z,8.7
2017-10-30T09:24:31.893Z,8.8
2017-10-30T09:25:36.700Z,8.8
2017-10-30T09:26:38.795Z,8.8
2017-10-30T09:27:40.882Z,8.8
2017-10-30T09:28:42.984Z,8.7
2017-10-30T09:29:44.973Z,8.7
2017-10-30T09:30:46.941Z,8.8
2017-10-30T09:31:49.007Z,8.5
2017-10-30T09:32:50.911Z,8.7
2017-10-30T09:33:52.956Z,8.9
2017-10-30T09:34:54.923Z,9.5
2017-10-30T09:35:56.962Z,9.5
2017-10-30T09:36:59.066Z,9.8
2017-10-30T09:38:01.111Z,10.3
2017-10-30T09:39:03.149Z,10.8
2017-10-30T09:40:05.201Z,11.3
2017-10-30T09:41:07.331Z,11.4
2017-10-30T09:42:09.373Z,11.3
2017-10-30T09:43:11.406Z,10.5
2017-10-30T09:44:13.437Z,10.3
2017-10-30T09:45:15.463Z,10.1
2017-10-30T09:46:17.491Z,10
2017-10-30T09:47:19.712Z,10.1
2017-10-30T09:48:21.778Z,10
2017-10-30T09:49:23.731Z,9.8
2017-10-30T09:50:25.944Z,9.9
2017-10-30T09:51:27.978Z,9.9
2017-10-30T09:52:30.041Z,9.8
2017-10-30T09:53:32.060Z,9.9
2017-10-30T09:54:35.477Z,10.6
2017-10-30T09:55:37.552Z,10.8
2017-10-30T09:56:39.649Z,11
2017-10-30T09:57:41.755Z,11.3
2017-10-30T09:58:43.778Z,11.3
2017-10-30T09:59:45.885Z,10.8
2017-10-30T10:00:47.948Z,10.6
2017-10-30T10:01:50.047Z,10.6
2017-10-30T10:02:52.429Z,10.6
2017-10-30T10:03:54.489Z,10.5
2017-10-30T10:04:56.628Z,10.7
2017-10-30T10:05:58.769Z,11.3
2017-10-30T10:07:00.839Z,11.4
2017-10-30T10:08:03.231Z,11.2
2017-10-30T10:09:05.296Z,11
2017-10-30T10:10:07.569Z,10.8
2017-10-30T10:11:11.443Z,10.7
2017-10-30T10:12:13.571Z,10.8
2017-10-30T10:13:15.642Z,10.6
2017-10-30T10:14:17.732Z,10.5
2017-10-30T10:15:19.754Z,10.9
2017-10-30T10:16:22.039Z,10.7
2017-10-30T10:17:24.137Z,10.6
2017-10-30T10:18:26.202Z,10.5
2017-10-30T10:19:28.285Z,10.4
2017-10-30T10:20:30.642Z,10.5
2017-10-30T10:21:32.730Z,11.1
2017-10-30T10:22:34.891Z,11.2
2017-10-30T10:23:36.921Z,11.5
2017-10-30T10:24:39.017Z,11.5
2017-10-30T10:25:41.100Z,11.2
2017-10-30T10:26:43.143Z,11.1
2017-10-30T10:27:45.167Z,11.3
2017-10-30T10:28:47.236Z,11.1
2017-10-30T10:29:49.239Z,11
2017-10-30T10:30:51.233Z,11.1
2017-10-30T10:31:53.290Z,10.9
2017-10-30T10:32:55.413Z,10.9
2017-10-30T10:33:57.815Z,11.2
2017-10-30T10:34:59.863Z,11.1
2017-10-30T10:36:01.775Z,11.1
2017-10-30T10:37:03.737Z,10.8
2017-10-30T10:38:05.773Z,10.8
2017-10-30T10:39:07.826Z,10.8
2017-10-30T10:40:09.810Z,10.8
2017-10-30T10:41:11.720Z,10.9
2017-10-30T10:42:13.615Z,11.1
2017-10-30T10:43:15.585Z,11.5
2017-10-30T10:44:17.535Z,11.4
2017-10-30T10:45:19.599Z,11
2017-10-30T10:46:21.604Z,11
2017-10-30T10:47:23.508Z,10.9
2017-10-30T10:48:25.489Z,11.4
2017-10-30T10:49:27.462Z,11.3
2017-10-30T10:50:29.726Z,11.7
2017-10-30T10:51:31.821Z,11.5
2017-10-30T10:52:35.982Z,11.4
2017-10-30T10:53:37.953Z,10.7
2017-10-30T10:54:40.074Z,10.6
2017-10-30T10:55:42.280Z,10.6
2017-10-30T10:56:44.380Z,10.7
2017-10-30T10:57:46.425Z,10.6
2017-10-30T10:58:48.714Z,10.6
2017-10-30T10:59:50.770Z,10.5
2017-10-30T11:00:52.859Z,10.5
2017-10-30T11:01:54.721Z,10.6
2017-10-30T11:02:57.177Z,11
2017-10-30T11:03:59.102Z,11.1
2017-10-30T11:05:01.067Z,11
2017-10-30T11:06:03.116Z,11.1
2017-10-30T11:07:05.255Z,11.3
2017-10-30T11:08:07.383Z,11.6
2017-10-30T11:09:09.462Z,11.7
2017-10-30T11:10:11.820Z,11.4
2017-10-30T11:11:13.994Z,11.2
2017-10-30T11:12:16.155Z,11
2017-10-30T11:13:18.232Z,10.9
2017-10-30T11:14:20.332Z,10.8
2017-10-30T11:15:22.787Z,10.5
2017-10-30T11:16:24.809Z,10.6
2017-10-30T11:17:26.895Z,10.6
2017-10-30T11:18:28.935Z,10.6
2017-10-30T11:19:31.070Z,10.7
2017-10-30T11:20:34.517Z,10.7
2017-10-30T11:21:36.540Z,10.7
2017-10-30T11:22:38.676Z,10.4
2017-10-30T11:23:40.786Z,10.5
2017-10-30T11:24:42.869Z,10.6
2017-10-30T11:25:45.076Z,10.7
2017-10-30T11:26:47.316Z,10.8
2017-10-30T11:27:49.324Z,11.1
2017-10-30T11:28:51.236Z,11.4
2017-10-30T11:29:53.487Z,11.9
2017-10-30T11:30:55.576Z,12.1
2017-10-30T11:31:57.590Z,12.1
2017-10-30T11:32:59.733Z,12.3
2017-10-30T11:34:02.023Z,12.5
2017-10-30T11:35:04.221Z,12.2
2017-10-30T11:36:06.689Z,12.1
2017-10-30T11:37:08.899Z,11.9
2017-10-30T11:38:10.995Z,12.1
2017-10-30T11:39:15.940Z,12.3
2017-10-30T11:40:18.073Z,12.1
2017-10-30T11:41:27.039Z,12
2017-10-30T11:42:30.043Z,12.1
2017-10-30T11:43:34.503Z,12.2
2017-10-30T11:44:38.466Z,12.6
2017-10-30T11:45:41.299Z,12.6
2017-10-30T11:46:44.614Z,12.5
2017-10-30T11:47:46.723Z,12.5
2017-10-30T11:48:48.696Z,12.2
2017-10-30T11:49:50.725Z,12.3
2017-10-30T11:50:52.842Z,12.2
2017-10-30T11:51:55.014Z,11.5
2017-10-30T11:52:57.895Z,11.9
2017-10-30T11:54:01.863Z,11.9
2017-10-30T11:55:03.913Z,12.1
2017-10-30T11:56:05.822Z,12.3
2017-10-30T11:57:07.812Z,12.5
2017-10-30T11:58:09.790Z,12.4
2017-10-30T11:59:11.740Z,11.9
2017-10-30T12:00:13.663Z,11.9
2017-10-30T12:01:15.537Z,11.6
2017-10-30T12:02:17.551Z,11.7
2017-10-30T12:03:19.601Z,11.4
2017-10-30T12:04:21.661Z,11.4
2017-10-30T12:05:23.773Z,11.5
2017-10-30T12:06:25.781Z,11.6
2017-10-30T12:07:27.997Z,11.6
2017-10-30T12:08:30.037Z,11.6
2017-10-30T12:09:32.228Z,11.8
2017-10-30T12:10:35.905Z,11.5
2017-10-30T12:11:38.222Z,11.6
2017-10-30T12:12:40.618Z,11.9
2017-10-30T12:13:42.638Z,12.2
2017-10-30T12:14:44.592Z,12.5
2017-10-30T12:15:46.535Z,12.8
2017-10-30T12:16:48.560Z,12.8
2017-10-30T12:17:50.831Z,12.5
2017-10-30T12:18:52.822Z,12.1
2017-10-30T12:19:54.791Z,12.2
2017-10-30T12:20:56.786Z,12
2017-10-30T12:21:58.720Z,11.8
2017-10-30T12:23:00.664Z,11.3
2017-10-30T12:24:02.557Z,11.5
2017-10-30T12:25:04.572Z,11.1
2017-10-30T12:26:06.557Z,11.2
2017-10-30T12:27:08.688Z,11.1
2017-10-30T12:28:10.664Z,11.1
2017-10-30T12:29:12.635Z,10.9
2017-10-30T12:30:14.807Z,10.4
2017-10-30T12:31:16.767Z,10.5
2017-10-30T12:32:22.321Z,10.4
2017-10-30T12:33:24.401Z,10.3
2017-10-30T12:34:26.452Z,10.3
2017-10-30T12:35:28.415Z,10.3
2017-10-30T12:36:30.590Z,10.5
2017-10-30T12:37:34.426Z,10.4
2017-10-30T12:38:36.364Z,10.4
2017-10-30T12:39:38.365Z,10.6
2017-10-30T12:40:40.356Z,10.5
2017-10-30T12:41:42.287Z,10.2
2017-10-30T12:42:44.353Z,10.3
2017-10-30T12:43:46.505Z,10.5
2017-10-30T12:44:48.511Z,10.6
2017-10-30T12:45:50.590Z,10.7
2017-10-30T12:46:52.604Z,10.8
2017-10-30T12:47:54.552Z,10.7
2017-10-30T12:48:57.057Z,10.6
2017-10-30T12:49:59.032Z,10.5
2017-10-30T12:51:01.029Z,10.7
2017-10-30T12:52:03.003Z,10.8
2017-10-30T12:53:05.373Z,10.6
2017-10-30T12:54:07.959Z,10.6
2017-10-30T12:55:10.492Z,10.6
2017-10-30T12:56:13.275Z,10.4
2017-10-30T12:57:15.889Z,10.5
2017-10-30T12:58:19.232Z,10.7
2017-10-30T12:59:22.230Z,10.8
2017-10-30T13:00:24.374Z,10.9
2017-10-30T13:01:26.302Z,11
2017-10-30T13:02:28.333Z,11.1
2017-10-30T13:03:31.196Z,11.3
2017-10-30T13:04:34.615Z,11.3
2017-10-30T13:05:36.557Z,11.3
2017-10-30T13:06:38.487Z,11.1
2017-10-30T13:07:40.442Z,10.8
2017-10-30T13:08:42.438Z,10.7
2017-10-30T13:09:44.754Z,10.9
2017-10-30T13:10:46.780Z,10.9
2017-10-30T13:11:48.725Z,11
2017-10-30T13:12:50.739Z,11.1
2017-10-30T13:13:52.842Z,11.1
2017-10-30T13:14:57.464Z,11.2
2017-10-30T13:15:59.408Z,11
2017-10-30T13:17:02.033Z,10.9
2017-10-30T13:18:04.151Z,10.9
2017-10-30T13:19:07.175Z,11
2017-10-30T13:20:10.314Z,11.2
2017-10-30T13:21:12.226Z,11.3
2017-10-30T13:22:14.773Z,11.5
2017-10-30T13:23:16.693Z,11.5
2017-10-30T13:24:19.199Z,11
2017-10-30T13:25:21.411Z,10.9
2017-10-30T13:26:23.402Z,10.8
2017-10-30T13:27:25.400Z,10.7
2017-10-30T13:28:27.376Z,10.6
2017-10-30T13:29:29.474Z,10.5
2017-10-30T13:30:31.454Z,10.6
2017-10-30T13:31:36.366Z,10.4
2017-10-30T13:32:38.297Z,10.4
2017-10-30T13:33:40.799Z,10.5
2017-10-30T13:34:44.149Z,10.6
2017-10-30T13:35:46.643Z,10.5
2017-10-30T13:36:48.633Z,10.5
2017-10-30T13:37:50.544Z,10.6
2017-10-30T13:38:52.463Z,10.6
2017-10-30T13:39:54.454Z,10.3
2017-10-30T13:40:56.559Z,10.4
2017-10-30T13:41:58.574Z,10.4
2017-10-30T13:43:00.525Z,10.5
2017-10-30T13:44:08.268Z,10.6
2017-10-30T13:45:10.234Z,10.6
2017-10-30T13:46:12.253Z,10.6
2017-10-30T13:47:14.175Z,10.7
2017-10-30T13:48:16.121Z,10.3
2017-10-30T13:49:18.118Z,10.3
2017-10-30T13:50:20.182Z,10.5
2017-10-30T13:51:22.399Z,10.3
2017-10-30T13:52:24.355Z,10.4
2017-10-30T13:53:26.603Z,10.4
2017-10-30T13:54:28.574Z,10.4
2017-10-30T13:55:30.578Z,10.5
2017-10-30T13:56:32.534Z,10.5
2017-10-30T13:57:34.511Z,10.5
2017-10-30T13:58:36.452Z,10.4
2017-10-30T13:59:38.682Z,10.4
2017-10-30T14:00:40.942Z,9.8
2017-10-30T14:01:43.150Z,9.8
2017-10-30T14:02:45.165Z,9.6
2017-10-30T14:03:47.169Z,9.5
2017-10-30T14:04:49.155Z,9.5
2017-10-30T14:05:51.227Z,9.5
2017-10-30T14:06:53.448Z,9.4
2017-10-30T14:07:55.457Z,9.4
2017-10-30T14:08:57.518Z,9.7
2017-10-30T14:09:59.531Z,10
2017-10-30T14:11:01.494Z,10.1
2017-10-30T14:12:03.450Z,10.2